sensor_id;sensor_type;location;lat;lon;timestamp;P1;durP1;ratioP1;P2;durP2;ratioP2
3677;SDS011;1855;50.934;6.958;2023-05-10T00:00:18;18.88;;;14.10;;
3677;SDS011;1855;50.934;6.958;2023-05-10T00:02:45;21.52;;;14.77;;
3677;SDS011;1855;50.934;6.958;2023-05-10T00:05:12;21.33;;;14.95;;
3677;SDS011;1855;50.934;6.958;2023-05-10T00:07:38;22.92;;;15.00;;
3677;SDS011;1855;50.934;6.958;2023-05-10T00:10:06;23.15;;;15.60;;
3677;SDS011;1855;50.934;6.958;2023-05-10T00:12:33;25.95;;;16.70;;
3677;SDS011;1855;50.934;6.958;2023-05-10T00:15:01;24.75;;;15.65;;
3677;SDS011;1855;50.934;6.958;2023-05-10T00:17:28;25.35;;;16.48;;
3677;SDS011;1855;50.934;6.958;2023-05-10T00:19:55;31.95;;;17.40;;
3677;SDS011;1855;50.934;6.958;2023-05-10T00:22:22;25.80;;;16.73;;
3677;SDS011;1855;50.934;6.958;2023-05-10T00:24:49;27.10;;;16.58;;
3677;SDS011;1855;50.934;6.958;2023-05-10T00:27:17;26.85;;;17.30;;
3677;SDS011;1855;50.934;6.958;2023-05-10T00:29:43;27.73;;;17.33;;
3677;SDS011;1855;50.934;6.958;2023-05-10T00:32:11;28.48;;;16.80;;
3677;SDS011;1855;50.934;6.958;2023-05-10T00:34:38;27.27;;;17.27;;
3677;SDS011;1855;50.934;6.958;2023-05-10T00:37:05;27.92;;;17.23;;
3677;SDS011;1855;50.934;6.958;2023-05-10T00:39:32;26.85;;;17.15;;
3677;SDS011;1855;50.934;6.958;2023-05-10T00:41:59;31.45;;;17.50;;
3677;SDS011;1855;50.934;6.958;2023-05-10T00:44:26;29.87;;;17.80;;
3677;SDS011;1855;50.934;6.958;2023-05-10T00:46:52;31.65;;;18.02;;
3677;SDS011;1855;50.934;6.958;2023-05-10T00:49:21;29.75;;;17.58;;
3677;SDS011;1855;50.934;6.958;2023-05-10T00:51:47;33.63;;;18.00;;
3677;SDS011;1855;50.934;6.958;2023-05-10T00:54:14;29.92;;;17.80;;
3677;SDS011;1855;50.934;6.958;2023-05-10T00:56:42;34.50;;;18.40;;
3677;SDS011;1855;50.934;6.958;2023-05-10T00:59:13;31.92;;;17.75;;
3677;SDS011;1855;50.934;6.958;2023-05-10T01:01:41;29.63;;;17.58;;
3677;SDS011;1855;50.934;6.958;2023-05-10T01:04:08;30.38;;;18.50;;
3677;SDS011;1855;50.934;6.958;2023-05-10T01:06:38;31.60;;;19.60;;
3677;SDS011;1855;50.934;6.958;2023-05-10T01:09:04;31.85;;;18.88;;
3677;SDS011;1855;50.934;6.958;2023-05-10T01:11:31;34.90;;;19.73;;
3677;SDS011;1855;50.934;6.958;2023-05-10T01:13:58;32.85;;;18.50;;
3677;SDS011;1855;50.934;6.958;2023-05-10T01:16:25;31.70;;;18.40;;
3677;SDS011;1855;50.934;6.958;2023-05-10T01:18:54;33.97;;;19.27;;
3677;SDS011;1855;50.934;6.958;2023-05-10T01:21:23;36.90;;;19.27;;
3677;SDS011;1855;50.934;6.958;2023-05-10T01:24:02;31.60;;;18.23;;
3677;SDS011;1855;50.934;6.958;2023-05-10T01:26:50;33.97;;;20.38;;
3677;SDS011;1855;50.934;6.958;2023-05-10T01:29:44;33.17;;;18.92;;
3677;SDS011;1855;50.934;6.958;2023-05-10T01:32:26;31.40;;;18.58;;
3677;SDS011;1855;50.934;6.958;2023-05-10T01:34:59;30.00;;;17.88;;
3677;SDS011;1855;50.934;6.958;2023-05-10T01:37:31;32.53;;;18.67;;
3677;SDS011;1855;50.934;6.958;2023-05-10T01:40:08;32.10;;;19.23;;
3677;SDS011;1855;50.934;6.958;2023-05-10T01:42:43;31.23;;;17.98;;
3677;SDS011;1855;50.934;6.958;2023-05-10T01:45:15;31.92;;;17.75;;
3677;SDS011;1855;50.934;6.958;2023-05-10T01:47:50;30.95;;;17.98;;
3677;SDS011;1855;50.934;6.958;2023-05-10T01:50:27;31.35;;;17.92;;
3677;SDS011;1855;50.934;6.958;2023-05-10T01:52:57;29.70;;;17.70;;
3677;SDS011;1855;50.934;6.958;2023-05-10T01:55:27;26.52;;;16.75;;
3677;SDS011;1855;50.934;6.958;2023-05-10T01:58:00;25.42;;;16.60;;
3677;SDS011;1855;50.934;6.958;2023-05-10T02:00:30;24.97;;;16.33;;
3677;SDS011;1855;50.934;6.958;2023-05-10T02:03:01;23.25;;;15.77;;
3677;SDS011;1855;50.934;6.958;2023-05-10T02:05:31;23.40;;;15.93;;
3677;SDS011;1855;50.934;6.958;2023-05-10T02:07:59;29.33;;;16.90;;
3677;SDS011;1855;50.934;6.958;2023-05-10T02:10:29;29.30;;;17.70;;
3677;SDS011;1855;50.934;6.958;2023-05-10T02:12:58;29.60;;;17.40;;
3677;SDS011;1855;50.934;6.958;2023-05-10T02:15:25;29.48;;;17.05;;
3677;SDS011;1855;50.934;6.958;2023-05-10T02:17:54;32.22;;;18.20;;
3677;SDS011;1855;50.934;6.958;2023-05-10T02:20:23;31.15;;;18.67;;
3677;SDS011;1855;50.934;6.958;2023-05-10T02:22:51;29.83;;;16.67;;
3677;SDS011;1855;50.934;6.958;2023-05-10T02:25:20;30.77;;;17.73;;
3677;SDS011;1855;50.934;6.958;2023-05-10T02:27:48;27.25;;;16.27;;
3677;SDS011;1855;50.934;6.958;2023-05-10T02:30:16;26.23;;;16.10;;
3677;SDS011;1855;50.934;6.958;2023-05-10T02:32:44;27.10;;;15.60;;
3677;SDS011;1855;50.934;6.958;2023-05-10T02:35:11;29.37;;;15.17;;
3677;SDS011;1855;50.934;6.958;2023-05-10T02:37:40;30.48;;;14.90;;
3677;SDS011;1855;50.934;6.958;2023-05-10T02:40:08;31.73;;;16.80;;
3677;SDS011;1855;50.934;6.958;2023-05-10T02:42:36;20.20;;;13.30;;
3677;SDS011;1855;50.934;6.958;2023-05-10T02:45:06;23.20;;;13.45;;
3677;SDS011;1855;50.934;6.958;2023-05-10T02:47:37;26.65;;;13.85;;
3677;SDS011;1855;50.934;6.958;2023-05-10T02:50:05;18.38;;;12.68;;
3677;SDS011;1855;50.934;6.958;2023-05-10T02:52:36;21.67;;;13.05;;
3677;SDS011;1855;50.934;6.958;2023-05-10T02:55:09;18.35;;;11.60;;
3677;SDS011;1855;50.934;6.958;2023-05-10T02:57:40;20.05;;;12.07;;
3677;SDS011;1855;50.934;6.958;2023-05-10T03:00:11;20.48;;;12.55;;
3677;SDS011;1855;50.934;6.958;2023-05-10T03:02:38;20.40;;;12.05;;
3677;SDS011;1855;50.934;6.958;2023-05-10T03:05:05;19.90;;;11.65;;
3677;SDS011;1855;50.934;6.958;2023-05-10T03:07:32;18.27;;;11.50;;
3677;SDS011;1855;50.934;6.958;2023-05-10T03:10:01;16.83;;;10.65;;
3677;SDS011;1855;50.934;6.958;2023-05-10T03:12:31;16.07;;;11.40;;
3677;SDS011;1855;50.934;6.958;2023-05-10T03:15:10;14.10;;;10.52;;
3677;SDS011;1855;50.934;6.958;2023-05-10T03:17:45;17.00;;;10.93;;
3677;SDS011;1855;50.934;6.958;2023-05-10T03:20:20;14.98;;;10.68;;
3677;SDS011;1855;50.934;6.958;2023-05-10T03:22:51;16.17;;;11.00;;
3677;SDS011;1855;50.934;6.958;2023-05-10T03:25:22;13.90;;;10.60;;
3677;SDS011;1855;50.934;6.958;2023-05-10T03:27:50;15.63;;;11.48;;
3677;SDS011;1855;50.934;6.958;2023-05-10T03:30:18;14.30;;;10.63;;
3677;SDS011;1855;50.934;6.958;2023-05-10T03:32:45;17.75;;;11.85;;
3677;SDS011;1855;50.934;6.958;2023-05-10T03:35:12;16.02;;;11.45;;
3677;SDS011;1855;50.934;6.958;2023-05-10T03:37:39;17.02;;;12.32;;
3677;SDS011;1855;50.934;6.958;2023-05-10T03:40:06;18.00;;;12.23;;
3677;SDS011;1855;50.934;6.958;2023-05-10T03:42:35;24.10;;;13.38;;
3677;SDS011;1855;50.934;6.958;2023-05-10T03:45:02;21.67;;;14.30;;
3677;SDS011;1855;50.934;6.958;2023-05-10T03:47:29;24.85;;;15.20;;
3677;SDS011;1855;50.934;6.958;2023-05-10T03:49:55;25.13;;;15.23;;
3677;SDS011;1855;50.934;6.958;2023-05-10T03:52:22;27.15;;;17.42;;
3677;SDS011;1855;50.934;6.958;2023-05-10T03:54:49;27.48;;;17.33;;
3677;SDS011;1855;50.934;6.958;2023-05-10T03:57:15;30.13;;;18.50;;
3677;SDS011;1855;50.934;6.958;2023-05-10T03:59:43;30.42;;;18.30;;
3677;SDS011;1855;50.934;6.958;2023-05-10T04:02:10;31.75;;;19.50;;
3677;SDS011;1855;50.934;6.958;2023-05-10T04:04:37;31.83;;;19.35;;
3677;SDS011;1855;50.934;6.958;2023-05-10T04:07:04;33.40;;;19.23;;
3677;SDS011;1855;50.934;6.958;2023-05-10T04:09:30;33.78;;;20.30;;
3677;SDS011;1855;50.934;6.958;2023-05-10T04:11:58;32.10;;;19.95;;
3677;SDS011;1855;50.934;6.958;2023-05-10T04:14:25;32.00;;;19.73;;
3677;SDS011;1855;50.934;6.958;2023-05-10T04:16:53;32.85;;;20.00;;
3677;SDS011;1855;50.934;6.958;2023-05-10T04:19:20;34.55;;;21.25;;
3677;SDS011;1855;50.934;6.958;2023-05-10T04:21:47;33.47;;;21.52;;
3677;SDS011;1855;50.934;6.958;2023-05-10T04:24:13;32.63;;;21.48;;
3677;SDS011;1855;50.934;6.958;2023-05-10T04:26:40;31.98;;;20.55;;
3677;SDS011;1855;50.934;6.958;2023-05-10T04:29:07;30.77;;;20.27;;
3677;SDS011;1855;50.934;6.958;2023-05-10T04:31:34;31.93;;;20.70;;
3677;SDS011;1855;50.934;6.958;2023-05-10T04:34:02;30.83;;;20.50;;
3677;SDS011;1855;50.934;6.958;2023-05-10T04:36:29;30.73;;;20.58;;
3677;SDS011;1855;50.934;6.958;2023-05-10T04:38:57;35.00;;;20.93;;
3677;SDS011;1855;50.934;6.958;2023-05-10T04:41:24;31.57;;;21.60;;
3677;SDS011;1855;50.934;6.958;2023-05-10T04:43:50;29.80;;;21.20;;
3677;SDS011;1855;50.934;6.958;2023-05-10T04:46:17;29.10;;;21.00;;
3677;SDS011;1855;50.934;6.958;2023-05-10T04:48:44;30.53;;;21.00;;
3677;SDS011;1855;50.934;6.958;2023-05-10T04:51:12;28.67;;;21.33;;
3677;SDS011;1855;50.934;6.958;2023-05-10T04:53:39;27.77;;;21.23;;
3677;SDS011;1855;50.934;6.958;2023-05-10T04:56:06;32.53;;;21.95;;
3677;SDS011;1855;50.934;6.958;2023-05-10T04:58:32;28.63;;;21.47;;
3677;SDS011;1855;50.934;6.958;2023-05-10T05:01:04;28.10;;;21.00;;
3677;SDS011;1855;50.934;6.958;2023-05-10T05:03:32;29.33;;;21.27;;
3677;SDS011;1855;50.934;6.958;2023-05-10T05:05:59;28.37;;;21.60;;
3677;SDS011;1855;50.934;6.958;2023-05-10T05:08:27;29.60;;;21.42;;
3677;SDS011;1855;50.934;6.958;2023-05-10T05:10:53;26.30;;;20.23;;
3677;SDS011;1855;50.934;6.958;2023-05-10T05:13:20;27.90;;;20.45;;
3677;SDS011;1855;50.934;6.958;2023-05-10T05:15:47;28.35;;;20.67;;
3677;SDS011;1855;50.934;6.958;2023-05-10T05:18:14;29.52;;;19.73;;
3677;SDS011;1855;50.934;6.958;2023-05-10T05:20:40;26.52;;;19.27;;
3677;SDS011;1855;50.934;6.958;2023-05-10T05:23:07;29.10;;;19.48;;
3677;SDS011;1855;50.934;6.958;2023-05-10T05:25:35;24.17;;;18.30;;
3677;SDS011;1855;50.934;6.958;2023-05-10T05:28:02;24.02;;;17.42;;
3677;SDS011;1855;50.934;6.958;2023-05-10T05:30:29;20.23;;;17.80;;
3677;SDS011;1855;50.934;6.958;2023-05-10T05:32:55;22.55;;;17.63;;
3677;SDS011;1855;50.934;6.958;2023-05-10T05:35:22;23.30;;;17.67;;
3677;SDS011;1855;50.934;6.958;2023-05-10T05:37:49;19.80;;;15.80;;
3677;SDS011;1855;50.934;6.958;2023-05-10T05:40:16;20.58;;;15.40;;
3677;SDS011;1855;50.934;6.958;2023-05-10T05:42:44;20.40;;;14.90;;
3677;SDS011;1855;50.934;6.958;2023-05-10T05:45:10;19.98;;;15.23;;
3677;SDS011;1855;50.934;6.958;2023-05-10T05:47:38;20.50;;;15.57;;
3677;SDS011;1855;50.934;6.958;2023-05-10T05:50:05;19.67;;;15.17;;
3677;SDS011;1855;50.934;6.958;2023-05-10T05:52:32;17.23;;;13.77;;
3677;SDS011;1855;50.934;6.958;2023-05-10T05:54:59;20.30;;;14.95;;
3677;SDS011;1855;50.934;6.958;2023-05-10T05:57:26;18.50;;;14.88;;
3677;SDS011;1855;50.934;6.958;2023-05-10T05:59:54;16.65;;;14.48;;
3677;SDS011;1855;50.934;6.958;2023-05-10T06:02:21;17.48;;;13.60;;
3677;SDS011;1855;50.934;6.958;2023-05-10T06:04:47;14.48;;;12.88;;
3677;SDS011;1855;50.934;6.958;2023-05-10T06:07:14;16.30;;;13.07;;
3677;SDS011;1855;50.934;6.958;2023-05-10T06:09:41;16.27;;;13.30;;
3677;SDS011;1855;50.934;6.958;2023-05-10T06:12:10;16.33;;;13.77;;
3677;SDS011;1855;50.934;6.958;2023-05-10T06:14:37;14.10;;;12.20;;
3677;SDS011;1855;50.934;6.958;2023-05-10T06:17:05;18.33;;;12.95;;
3677;SDS011;1855;50.934;6.958;2023-05-10T06:19:32;16.90;;;12.65;;
3677;SDS011;1855;50.934;6.958;2023-05-10T06:21:59;14.45;;;12.15;;
3677;SDS011;1855;50.934;6.958;2023-05-10T06:24:26;14.43;;;12.93;;
3677;SDS011;1855;50.934;6.958;2023-05-10T06:26:53;13.75;;;12.32;;
3677;SDS011;1855;50.934;6.958;2023-05-10T06:29:20;14.48;;;12.30;;
3677;SDS011;1855;50.934;6.958;2023-05-10T06:31:46;14.13;;;12.43;;
3677;SDS011;1855;50.934;6.958;2023-05-10T06:34:15;16.65;;;12.85;;
3677;SDS011;1855;50.934;6.958;2023-05-10T06:36:41;14.07;;;12.03;;
3677;SDS011;1855;50.934;6.958;2023-05-10T06:39:08;15.43;;;13.20;;
3677;SDS011;1855;50.934;6.958;2023-05-10T06:41:36;16.25;;;12.25;;
3677;SDS011;1855;50.934;6.958;2023-05-10T06:44:03;13.25;;;11.85;;
3677;SDS011;1855;50.934;6.958;2023-05-10T06:46:30;16.08;;;12.90;;
3677;SDS011;1855;50.934;6.958;2023-05-10T06:48:57;15.10;;;13.50;;
3677;SDS011;1855;50.934;6.958;2023-05-10T06:51:25;14.33;;;12.83;;
3677;SDS011;1855;50.934;6.958;2023-05-10T06:53:52;16.42;;;13.75;;
3677;SDS011;1855;50.934;6.958;2023-05-10T06:56:19;17.40;;;13.75;;
3677;SDS011;1855;50.934;6.958;2023-05-10T06:58:46;15.95;;;13.25;;
3677;SDS011;1855;50.934;6.958;2023-05-10T07:01:13;15.18;;;13.10;;
3677;SDS011;1855;50.934;6.958;2023-05-10T07:03:40;16.67;;;14.13;;
3677;SDS011;1855;50.934;6.958;2023-05-10T07:06:06;15.93;;;14.32;;
3677;SDS011;1855;50.934;6.958;2023-05-10T07:08:34;17.80;;;15.90;;
3677;SDS011;1855;50.934;6.958;2023-05-10T07:11:13;18.35;;;15.05;;
3677;SDS011;1855;50.934;6.958;2023-05-10T07:13:40;19.02;;;15.80;;
3677;SDS011;1855;50.934;6.958;2023-05-10T07:16:09;18.30;;;16.30;;
3677;SDS011;1855;50.934;6.958;2023-05-10T07:18:36;22.40;;;18.15;;
3677;SDS011;1855;50.934;6.958;2023-05-10T07:21:03;22.90;;;17.50;;
3677;SDS011;1855;50.934;6.958;2023-05-10T07:23:29;24.25;;;17.13;;
3677;SDS011;1855;50.934;6.958;2023-05-10T07:25:57;20.05;;;17.60;;
3677;SDS011;1855;50.934;6.958;2023-05-10T07:28:25;19.65;;;17.55;;
3677;SDS011;1855;50.934;6.958;2023-05-10T07:30:51;22.13;;;17.52;;
3677;SDS011;1855;50.934;6.958;2023-05-10T07:33:18;17.73;;;15.90;;
3677;SDS011;1855;50.934;6.958;2023-05-10T07:35:45;17.75;;;15.48;;
3677;SDS011;1855;50.934;6.958;2023-05-10T07:38:11;17.48;;;15.30;;
3677;SDS011;1855;50.934;6.958;2023-05-10T07:40:38;19.52;;;16.08;;
3677;SDS011;1855;50.934;6.958;2023-05-10T07:43:07;18.40;;;14.90;;
3677;SDS011;1855;50.934;6.958;2023-05-10T07:45:33;18.20;;;15.15;;
3677;SDS011;1855;50.934;6.958;2023-05-10T07:48:00;18.65;;;14.50;;
3677;SDS011;1855;50.934;6.958;2023-05-10T07:50:27;20.05;;;16.65;;
3677;SDS011;1855;50.934;6.958;2023-05-10T07:52:54;20.10;;;16.45;;
3677;SDS011;1855;50.934;6.958;2023-05-10T07:55:21;19.42;;;15.70;;
3677;SDS011;1855;50.934;6.958;2023-05-10T07:57:48;19.50;;;16.70;;
3677;SDS011;1855;50.934;6.958;2023-05-10T08:00:18;18.75;;;15.20;;
3677;SDS011;1855;50.934;6.958;2023-05-10T08:02:45;19.15;;;15.70;;
3677;SDS011;1855;50.934;6.958;2023-05-10T08:05:13;17.25;;;14.80;;
3677;SDS011;1855;50.934;6.958;2023-05-10T08:07:40;16.40;;;14.70;;
3677;SDS011;1855;50.934;6.958;2023-05-10T08:10:08;15.70;;;14.10;;
3677;SDS011;1855;50.934;6.958;2023-05-10T08:12:36;13.90;;;12.50;;
3677;SDS011;1855;50.934;6.958;2023-05-10T08:15:03;13.87;;;12.10;;
3677;SDS011;1855;50.934;6.958;2023-05-10T08:17:32;13.90;;;12.50;;
3677;SDS011;1855;50.934;6.958;2023-05-10T08:19:58;12.68;;;11.38;;
3677;SDS011;1855;50.934;6.958;2023-05-10T08:22:25;12.18;;;10.98;;
3677;SDS011;1855;50.934;6.958;2023-05-10T08:24:52;11.00;;;10.00;;
3677;SDS011;1855;50.934;6.958;2023-05-10T08:27:19;10.73;;;9.63;;
3677;SDS011;1855;50.934;6.958;2023-05-10T08:29:46;12.27;;;9.77;;
3677;SDS011;1855;50.934;6.958;2023-05-10T08:32:12;8.20;;;7.40;;
3677;SDS011;1855;50.934;6.958;2023-05-10T08:34:40;8.57;;;7.65;;
3677;SDS011;1855;50.934;6.958;2023-05-10T08:37:07;8.68;;;7.78;;
3677;SDS011;1855;50.934;6.958;2023-05-10T08:39:35;9.20;;;8.27;;
3677;SDS011;1855;50.934;6.958;2023-05-10T08:42:03;9.10;;;7.50;;
3677;SDS011;1855;50.934;6.958;2023-05-10T08:44:30;13.23;;;9.10;;
3677;SDS011;1855;50.934;6.958;2023-05-10T08:47:01;13.23;;;10.40;;
3677;SDS011;1855;50.934;6.958;2023-05-10T08:49:31;13.68;;;11.90;;
3677;SDS011;1855;50.934;6.958;2023-05-10T08:52:00;16.35;;;11.65;;
3677;SDS011;1855;50.934;6.958;2023-05-10T08:54:31;17.20;;;12.35;;
3677;SDS011;1855;50.934;6.958;2023-05-10T08:56:58;15.60;;;11.50;;
3677;SDS011;1855;50.934;6.958;2023-05-10T08:59:25;11.88;;;10.50;;
3677;SDS011;1855;50.934;6.958;2023-05-10T09:01:51;14.15;;;10.88;;
3677;SDS011;1855;50.934;6.958;2023-05-10T09:04:20;13.27;;;11.73;;
3677;SDS011;1855;50.934;6.958;2023-05-10T09:06:47;12.95;;;10.75;;
3677;SDS011;1855;50.934;6.958;2023-05-10T09:09:15;13.52;;;10.68;;
3677;SDS011;1855;50.934;6.958;2023-05-10T09:11:43;12.85;;;11.45;;
3677;SDS011;1855;50.934;6.958;2023-05-10T09:14:10;14.18;;;11.77;;
3677;SDS011;1855;50.934;6.958;2023-05-10T09:16:38;11.68;;;10.48;;
3677;SDS011;1855;50.934;6.958;2023-05-10T09:19:05;12.10;;;10.85;;
3677;SDS011;1855;50.934;6.958;2023-05-10T09:21:33;12.23;;;10.90;;
3677;SDS011;1855;50.934;6.958;2023-05-10T09:24:02;11.27;;;10.07;;
3677;SDS011;1855;50.934;6.958;2023-05-10T09:26:31;11.43;;;10.23;;
3677;SDS011;1855;50.934;6.958;2023-05-10T09:28:58;12.10;;;10.90;;
3677;SDS011;1855;50.934;6.958;2023-05-10T09:34:09;11.50;;;10.40;;
3677;SDS011;1855;50.934;6.958;2023-05-10T09:36:36;11.27;;;10.35;;
3677;SDS011;1855;50.934;6.958;2023-05-10T09:39:15;11.02;;;10.00;;
3677;SDS011;1855;50.934;6.958;2023-05-10T09:41:44;11.10;;;10.00;;
3677;SDS011;1855;50.934;6.958;2023-05-10T09:44:10;11.82;;;10.30;;
3677;SDS011;1855;50.934;6.958;2023-05-10T09:46:37;12.07;;;10.88;;
3677;SDS011;1855;50.934;6.958;2023-05-10T09:49:04;11.88;;;10.60;;
3677;SDS011;1855;50.934;6.958;2023-05-10T09:51:31;12.77;;;11.40;;
3677;SDS011;1855;50.934;6.958;2023-05-10T09:56:41;13.68;;;12.20;;
3677;SDS011;1855;50.934;6.958;2023-05-10T09:59:10;15.65;;;12.90;;
3677;SDS011;1855;50.934;6.958;2023-05-10T10:01:38;15.80;;;14.00;;
3677;SDS011;1855;50.934;6.958;2023-05-10T10:04:06;17.83;;;14.73;;
3677;SDS011;1855;50.934;6.958;2023-05-10T10:06:37;17.13;;;13.80;;
3677;SDS011;1855;50.934;6.958;2023-05-10T10:09:04;14.77;;;13.15;;
3677;SDS011;1855;50.934;6.958;2023-05-10T10:11:33;14.70;;;13.20;;
3677;SDS011;1855;50.934;6.958;2023-05-10T10:14:00;13.83;;;12.43;;
3677;SDS011;1855;50.934;6.958;2023-05-10T10:16:29;12.38;;;11.07;;
3677;SDS011;1855;50.934;6.958;2023-05-10T10:18:57;10.73;;;9.32;;
3677;SDS011;1855;50.934;6.958;2023-05-10T10:21:24;9.80;;;8.90;;
3677;SDS011;1855;50.934;6.958;2023-05-10T10:23:51;9.45;;;8.55;;
3677;SDS011;1855;50.934;6.958;2023-05-10T10:26:18;8.68;;;7.78;;
3677;SDS011;1855;50.934;6.958;2023-05-10T10:28:48;8.50;;;7.60;;
3677;SDS011;1855;50.934;6.958;2023-05-10T10:31:21;7.90;;;7.10;;
3677;SDS011;1855;50.934;6.958;2023-05-10T10:33:59;8.75;;;7.82;;
3677;SDS011;1855;50.934;6.958;2023-05-10T10:36:29;8.35;;;7.50;;
3677;SDS011;1855;50.934;6.958;2023-05-10T10:38:58;8.55;;;7.55;;
3677;SDS011;1855;50.934;6.958;2023-05-10T10:41:27;9.13;;;8.10;;
3677;SDS011;1855;50.934;6.958;2023-05-10T10:47:01;7.80;;;7.10;;
3677;SDS011;1855;50.934;6.958;2023-05-10T10:49:32;8.10;;;7.30;;
3677;SDS011;1855;50.934;6.958;2023-05-10T10:52:15;7.85;;;7.05;;
3677;SDS011;1855;50.934;6.958;2023-05-10T10:54:51;8.40;;;7.60;;
3677;SDS011;1855;50.934;6.958;2023-05-10T10:57:19;7.35;;;6.65;;
3677;SDS011;1855;50.934;6.958;2023-05-10T10:59:47;8.20;;;7.40;;
3677;SDS011;1855;50.934;6.958;2023-05-10T11:02:32;8.40;;;7.60;;
3677;SDS011;1855;50.934;6.958;2023-05-10T11:05:01;8.90;;;8.00;;
3677;SDS011;1855;50.934;6.958;2023-05-10T11:08:18;7.85;;;7.10;;
3677;SDS011;1855;50.934;6.958;2023-05-10T11:10:53;8.40;;;7.22;;
3677;SDS011;1855;50.934;6.958;2023-05-10T11:13:32;6.40;;;5.80;;
3677;SDS011;1855;50.934;6.958;2023-05-10T11:16:09;6.13;;;5.53;;
3677;SDS011;1855;50.934;6.958;2023-05-10T11:18:37;6.30;;;5.70;;
3677;SDS011;1855;50.934;6.958;2023-05-10T11:21:07;5.70;;;5.20;;
3677;SDS011;1855;50.934;6.958;2023-05-10T11:23:47;6.85;;;6.25;;
3677;SDS011;1855;50.934;6.958;2023-05-10T11:26:15;5.45;;;4.95;;
3677;SDS011;1855;50.934;6.958;2023-05-10T11:28:42;3.85;;;3.55;;
3677;SDS011;1855;50.934;6.958;2023-05-10T11:31:09;4.00;;;3.70;;
3677;SDS011;1855;50.934;6.958;2023-05-10T11:33:42;4.20;;;3.80;;
3677;SDS011;1855;50.934;6.958;2023-05-10T11:36:11;4.55;;;4.15;;
3677;SDS011;1855;50.934;6.958;2023-05-10T11:38:40;4.50;;;3.67;;
3677;SDS011;1855;50.934;6.958;2023-05-10T11:41:07;4.30;;;3.90;;
3677;SDS011;1855;50.934;6.958;2023-05-10T11:43:35;5.10;;;3.80;;
3677;SDS011;1855;50.934;6.958;2023-05-10T11:46:03;3.85;;;3.55;;
3677;SDS011;1855;50.934;6.958;2023-05-10T11:48:30;3.58;;;3.28;;
3677;SDS011;1855;50.934;6.958;2023-05-10T11:50:57;3.38;;;3.13;;
3677;SDS011;1855;50.934;6.958;2023-05-10T11:53:26;3.40;;;3.10;;
3677;SDS011;1855;50.934;6.958;2023-05-10T11:55:53;3.60;;;3.10;;
3677;SDS011;1855;50.934;6.958;2023-05-10T11:58:20;3.10;;;2.80;;
3677;SDS011;1855;50.934;6.958;2023-05-10T12:00:48;3.90;;;2.90;;
3677;SDS011;1855;50.934;6.958;2023-05-10T12:03:16;3.10;;;2.80;;
3677;SDS011;1855;50.934;6.958;2023-05-10T12:05:43;3.30;;;3.00;;
3677;SDS011;1855;50.934;6.958;2023-05-10T12:08:10;3.88;;;3.05;;
3677;SDS011;1855;50.934;6.958;2023-05-10T12:10:39;3.53;;;2.65;;
3677;SDS011;1855;50.934;6.958;2023-05-10T12:13:10;2.80;;;2.60;;
3677;SDS011;1855;50.934;6.958;2023-05-10T12:15:38;2.72;;;2.53;;
3677;SDS011;1855;50.934;6.958;2023-05-10T12:18:05;3.03;;;2.50;;
3677;SDS011;1855;50.934;6.958;2023-05-10T12:20:35;2.90;;;2.70;;
3677;SDS011;1855;50.934;6.958;2023-05-10T12:23:02;2.53;;;2.33;;
3677;SDS011;1855;50.934;6.958;2023-05-10T12:25:30;3.08;;;2.78;;
3677;SDS011;1855;50.934;6.958;2023-05-10T12:28:02;2.55;;;2.30;;
3677;SDS011;1855;50.934;6.958;2023-05-10T12:30:29;2.47;;;2.10;;
3677;SDS011;1855;50.934;6.958;2023-05-10T12:33:00;2.20;;;2.00;;
3677;SDS011;1855;50.934;6.958;2023-05-10T12:35:31;2.53;;;2.33;;
3677;SDS011;1855;50.934;6.958;2023-05-10T12:37:59;2.40;;;2.20;;
3677;SDS011;1855;50.934;6.958;2023-05-10T12:40:25;2.80;;;2.60;;
3677;SDS011;1855;50.934;6.958;2023-05-10T12:42:52;2.15;;;1.95;;
3677;SDS011;1855;50.934;6.958;2023-05-10T12:45:20;2.40;;;2.10;;
3677;SDS011;1855;50.934;6.958;2023-05-10T12:47:48;2.20;;;2.00;;
3677;SDS011;1855;50.934;6.958;2023-05-10T12:50:14;2.10;;;1.90;;
3677;SDS011;1855;50.934;6.958;2023-05-10T12:52:41;1.80;;;1.60;;
3677;SDS011;1855;50.934;6.958;2023-05-10T12:55:08;1.67;;;1.58;;
3677;SDS011;1855;50.934;6.958;2023-05-10T12:57:35;2.60;;;1.80;;
3677;SDS011;1855;50.934;6.958;2023-05-10T13:00:01;1.60;;;1.50;;
3677;SDS011;1855;50.934;6.958;2023-05-10T13:02:31;1.90;;;1.70;;
3677;SDS011;1855;50.934;6.958;2023-05-10T13:04:57;1.70;;;1.60;;
3677;SDS011;1855;50.934;6.958;2023-05-10T13:07:25;1.90;;;1.80;;
3677;SDS011;1855;50.934;6.958;2023-05-10T13:09:51;2.08;;;1.70;;
3677;SDS011;1855;50.934;6.958;2023-05-10T13:12:18;1.58;;;1.40;;
3677;SDS011;1855;50.934;6.958;2023-05-10T13:14:45;2.03;;;1.60;;
3677;SDS011;1855;50.934;6.958;2023-05-10T13:17:11;1.63;;;1.52;;
3677;SDS011;1855;50.934;6.958;2023-05-10T13:19:39;1.60;;;1.50;;
3677;SDS011;1855;50.934;6.958;2023-05-10T13:22:06;1.50;;;1.40;;
3677;SDS011;1855;50.934;6.958;2023-05-10T13:24:33;2.50;;;1.42;;
3677;SDS011;1855;50.934;6.958;2023-05-10T13:27:00;1.50;;;1.40;;
3677;SDS011;1855;50.934;6.958;2023-05-10T13:29:27;1.60;;;1.50;;
3677;SDS011;1855;50.934;6.958;2023-05-10T13:31:54;1.70;;;1.60;;
3677;SDS011;1855;50.934;6.958;2023-05-10T13:34:21;2.20;;;1.40;;
3677;SDS011;1855;50.934;6.958;2023-05-10T13:36:49;1.90;;;1.40;;
3677;SDS011;1855;50.934;6.958;2023-05-10T13:39:16;2.50;;;1.60;;
3677;SDS011;1855;50.934;6.958;2023-05-10T13:41:42;2.73;;;2.20;;
3677;SDS011;1855;50.934;6.958;2023-05-10T13:44:11;1.20;;;1.10;;
3677;SDS011;1855;50.934;6.958;2023-05-10T13:46:38;1.90;;;1.27;;
3677;SDS011;1855;50.934;6.958;2023-05-10T13:49:05;1.50;;;1.20;;
3677;SDS011;1855;50.934;6.958;2023-05-10T13:51:33;2.00;;;1.10;;
3677;SDS011;1855;50.934;6.958;2023-05-10T13:54:01;1.70;;;1.20;;
3677;SDS011;1855;50.934;6.958;2023-05-10T13:56:28;1.40;;;1.00;;
3677;SDS011;1855;50.934;6.958;2023-05-10T13:58:55;1.30;;;1.20;;
3677;SDS011;1855;50.934;6.958;2023-05-10T14:01:23;1.00;;;0.90;;
3677;SDS011;1855;50.934;6.958;2023-05-10T14:03:49;1.10;;;1.00;;
3677;SDS011;1855;50.934;6.958;2023-05-10T14:06:16;1.40;;;1.00;;
3677;SDS011;1855;50.934;6.958;2023-05-10T14:08:43;1.00;;;0.90;;
3677;SDS011;1855;50.934;6.958;2023-05-10T14:11:11;1.80;;;0.80;;
3677;SDS011;1855;50.934;6.958;2023-05-10T14:13:38;1.00;;;0.90;;
3677;SDS011;1855;50.934;6.958;2023-05-10T14:16:05;1.30;;;0.90;;
3677;SDS011;1855;50.934;6.958;2023-05-10T14:18:32;1.40;;;0.77;;
3677;SDS011;1855;50.934;6.958;2023-05-10T14:20:59;1.10;;;0.90;;
3677;SDS011;1855;50.934;6.958;2023-05-10T14:23:26;1.13;;;0.95;;
3677;SDS011;1855;50.934;6.958;2023-05-10T14:25:53;2.00;;;0.70;;
3677;SDS011;1855;50.934;6.958;2023-05-10T14:28:22;1.60;;;0.80;;
3677;SDS011;1855;50.934;6.958;2023-05-10T14:30:50;1.38;;;1.27;;
3677;SDS011;1855;50.934;6.958;2023-05-10T14:33:16;1.10;;;1.00;;
3677;SDS011;1855;50.934;6.958;2023-05-10T14:35:44;1.48;;;0.98;;
3677;SDS011;1855;50.934;6.958;2023-05-10T14:38:11;2.83;;;1.60;;
3677;SDS011;1855;50.934;6.958;2023-05-10T14:40:38;1.20;;;1.10;;
3677;SDS011;1855;50.934;6.958;2023-05-10T14:43:05;1.50;;;1.00;;
3677;SDS011;1855;50.934;6.958;2023-05-10T14:45:33;1.10;;;1.00;;
3677;SDS011;1855;50.934;6.958;2023-05-10T14:47:59;2.20;;;1.20;;
3677;SDS011;1855;50.934;6.958;2023-05-10T14:50:29;2.35;;;1.15;;
3677;SDS011;1855;50.934;6.958;2023-05-10T14:52:56;1.10;;;1.00;;
3677;SDS011;1855;50.934;6.958;2023-05-10T14:55:23;1.20;;;0.90;;
3677;SDS011;1855;50.934;6.958;2023-05-10T14:57:49;1.30;;;0.90;;
3677;SDS011;1855;50.934;6.958;2023-05-10T15:00:16;1.20;;;1.00;;
3677;SDS011;1855;50.934;6.958;2023-05-10T15:02:45;1.52;;;0.90;;
3677;SDS011;1855;50.934;6.958;2023-05-10T15:05:12;3.72;;;1.30;;
3677;SDS011;1855;50.934;6.958;2023-05-10T15:07:40;1.67;;;1.30;;
3677;SDS011;1855;50.934;6.958;2023-05-10T15:10:08;1.40;;;1.20;;
3677;SDS011;1855;50.934;6.958;2023-05-10T15:12:35;1.20;;;1.00;;